Time;durP1;ratioP1;P1;durP2;ratioP2;P2;SDS_P1;SDS_P2;PMS_P1;PMS_P2;Temp;Humidity;BMP_temperature;BMP_pressure;BME280_temperature;BME280_humidity;BME280_pressure;Samples;Min_cycle;Max_cycle;Signal;HPM_P1;HPM_P2
2023/07/25 00:01:19;;;;;;;5.40;2.58;;;;;;;19.51;100.00;99596.34;5117457;27;20631;-71
2023/07/25 00:03:47;;;;;;;4.20;2.45;;;;;;;19.43;100.00;99590.53;5124214;27;20043;-71
2023/07/25 00:06:13;;;;;;;4.13;2.00;;;;;;;19.35;100.00;99573.19;5114956;27;20476;-71
2023/07/25 00:08:38;;;;;;;7.53;2.85;;;;;;;19.34;100.00;99587.44;5114048;27;20027;-72
2023/07/25 00:11:04;;;;;;;5.10;2.17;;;;;;;19.32;100.00;99589.47;5110537;27;20031;-72
2023/07/25 00:13:29;;;;;;;6.43;2.13;;;;;;;19.32;100.00;99565.72;5118094;27;20039;-71
2023/07/25 00:15:55;;;;;;;4.43;2.22;;;;;;;19.30;100.00;99551.94;5118622;27;20483;-71
2023/07/25 00:18:20;;;;;;;4.72;2.28;;;;;;;19.37;100.00;99534.16;5119380;27;20031;-71
2023/07/25 00:20:46;;;;;;;7.20;2.60;;;;;;;19.44;100.00;99505.78;5119633;27;20031;-71
2023/07/25 00:23:11;;;;;;;6.65;2.30;;;;;;;19.45;100.00;99510.03;5112407;27;20039;-72
2023/07/25 00:25:37;;;;;;;8.73;2.40;;;;;;;19.52;100.00;99520.56;5112341;27;20034;-72
2023/07/25 00:28:02;;;;;;;8.75;2.70;;;;;;;19.59;100.00;99515.19;5124460;27;20035;-72
2023/07/25 00:30:28;;;;;;;9.30;3.35;;;;;;;19.63;100.00;99516.34;5120754;27;20086;-71
2023/07/25 00:32:53;;;;;;;6.40;2.80;;;;;;;19.67;100.00;99502.44;5094430;27;20027;-72
2023/07/25 00:35:18;;;;;;;5.97;2.60;;;;;;;19.66;100.00;99500.03;5117831;27;20475;-71
2023/07/25 00:37:44;;;;;;;4.93;2.50;;;;;;;19.63;100.00;99501.28;5131390;27;20096;-71
2023/07/25 00:40:10;;;;;;;4.45;2.28;;;;;;;19.62;100.00;99489.09;5114528;27;20033;-72
2023/07/25 00:42:35;;;;;;;5.28;2.08;;;;;;;19.56;100.00;99487.38;5114414;27;20028;-71
2023/07/25 00:45:00;;;;;;;6.60;2.15;;;;;;;19.43;100.00;99479.59;5113956;27;20392;-71
2023/07/25 00:47:26;;;;;;;8.40;1.20;;;;;;;19.27;100.00;99475.78;5118721;27;20491;-72
2023/07/25 00:49:52;;;;;;;4.70;1.10;;;;;;;19.22;100.00;99465.09;5117098;27;20035;-73
2023/07/25 00:52:18;;;;;;;7.82;1.70;;;;;;;19.21;100.00;99455.56;5124282;27;20023;-72
2023/07/25 00:54:48;;;;;;;5.40;1.48;;;;;;;19.20;100.00;99454.75;5129559;27;20042;-71
2023/07/25 00:57:18;;;;;;;4.80;1.70;;;;;;;19.20;100.00;99452.09;5134537;27;20027;-72
2023/07/25 00:59:45;;;;;;;7.40;1.98;;;;;;;19.23;100.00;99446.38;5117241;27;20028;-71
2023/07/25 01:02:12;;;;;;;6.68;1.70;;;;;;;19.29;100.00;99436.75;5114000;27;20381;-72
2023/07/25 01:04:38;;;;;;;4.20;1.48;;;;;;;19.36;100.00;99439.31;5118205;27;20027;-72
2023/07/25 01:07:08;;;;;;;8.43;2.55;;;;;;;19.37;100.00;99431.16;5121322;27;20080;-72
2023/07/25 01:09:44;;;;;;;5.22;1.70;;;;;;;19.35;100.00;99420.00;5140972;27;20031;-72
2023/07/25 01:12:11;;;;;;;7.65;2.08;;;;;;;19.33;100.00;99427.34;5121045;27;20020;-72
2023/07/25 01:14:38;;;;;;;5.93;3.35;;;;;;;19.34;100.00;99428.16;5113839;27;20080;-72
2023/07/25 01:17:18;;;;;;;4.97;1.80;;;;;;;19.37;100.00;99422.44;5130195;27;20027;-72
2023/07/25 01:19:47;;;;;;;8.50;1.88;;;;;;;19.35;100.00;99414.72;5113301;27;20506;-72
2023/07/25 01:22:13;;;;;;;6.25;1.85;;;;;;;19.32;100.00;99423.09;5129711;27;20357;-72
2023/07/25 01:24:44;;;;;;;6.32;1.98;;;;;;;19.30;100.00;99413.78;5114684;27;20106;-72
2023/07/25 01:27:10;;;;;;;3.55;2.17;;;;;;;19.26;100.00;99402.88;5128496;27;20674;-72
2023/07/25 01:29:36;;;;;;;5.60;1.98;;;;;;;19.30;100.00;99400.59;5118902;27;20471;-72
2023/07/25 01:32:02;;;;;;;6.53;1.80;;;;;;;19.24;100.00;99399.66;5113927;27;20034;-71
2023/07/25 01:34:27;;;;;;;3.95;1.15;;;;;;;19.28;100.00;99398.19;5113152;27;20484;-71
2023/07/25 01:36:52;;;;;;;3.67;1.02;;;;;;;19.21;100.00;99414.13;5127662;27;20038;-71
2023/07/25 01:39:18;;;;;;;3.60;1.38;;;;;;;19.26;100.00;99410.00;5113422;27;20023;-71
2023/07/25 01:41:43;;;;;;;4.68;1.70;;;;;;;19.25;100.00;99406.56;5126306;27;20046;-72
2023/07/25 01:44:09;;;;;;;2.33;1.23;;;;;;;19.22;100.00;99417.56;5123208;27;20031;-71
2023/07/25 01:46:35;;;;;;;7.03;1.42;;;;;;;19.21;100.00;99422.03;5129081;27;20083;-71
2023/07/25 01:49:01;;;;;;;8.38;1.50;;;;;;;19.08;100.00;99416.13;5126108;27;20039;-70
2023/07/25 01:51:27;;;;;;;6.68;1.73;;;;;;;19.03;100.00;99394.88;5136243;27;20091;-71
2023/07/25 01:53:53;;;;;;;3.83;1.27;;;;;;;19.06;100.00;99397.88;5118366;27;20479;-71
2023/07/25 01:56:20;;;;;;;4.40;1.33;;;;;;;19.06;100.00;99394.44;5134553;27;20031;-71
2023/07/25 01:58:45;;;;;;;7.05;1.67;;;;;;;19.06;100.00;99395.25;5115464;27;20180;-70
2023/07/25 02:01:11;;;;;;;5.30;1.85;;;;;;;19.04;100.00;99388.56;5094197;28;20484;-70
2023/07/25 02:03:36;;;;;;;7.32;1.92;;;;;;;19.00;100.00;99380.31;5112918;27;20059;-70
2023/07/25 02:06:03;;;;;;;6.80;2.00;;;;;;;19.09;100.00;99384.22;5124472;27;20560;-70
2023/07/25 02:08:28;;;;;;;8.15;2.03;;;;;;;19.14;100.00;99383.56;5112764;27;20031;-70
2023/07/25 02:10:54;;;;;;;4.82;1.27;;;;;;;19.18;100.00;99382.88;5113690;27;20208;-70
2023/07/25 02:13:19;;;;;;;5.40;1.60;;;;;;;19.21;100.00;99381.63;5121927;27;20511;-70
2023/07/25 02:15:45;;;;;;;6.20;1.80;;;;;;;19.18;100.00;99377.59;5126155;27;20394;-70
2023/07/25 02:18:10;;;;;;;3.50;1.58;;;;;;;19.17;100.00;99381.28;5112652;27;20489;-70
2023/07/25 02:20:36;;;;;;;4.47;2.63;;;;;;;19.17;100.00;99377.81;5118891;27;20047;-70
2023/07/25 02:23:02;;;;;;;3.90;1.48;;;;;;;19.07;100.00;99385.50;5112881;27;20053;-70
2023/07/25 02:25:28;;;;;;;2.85;1.92;;;;;;;19.06;100.00;99378.59;5124001;27;20066;-70
2023/07/25 02:27:54;;;;;;;4.57;1.67;;;;;;;19.06;100.00;99373.31;5120352;27;20024;-69
2023/07/25 02:30:21;;;;;;;6.10;1.60;;;;;;;19.04;100.00;99364.81;5114742;27;20512;-70
2023/07/25 02:32:46;;;;;;;3.75;1.52;;;;;;;19.03;100.00;99352.66;5126632;27;20441;-70
2023/07/25 02:35:12;;;;;;;6.22;1.92;;;;;;;18.93;100.00;99347.91;5120706;27;20031;-70
2023/07/25 02:37:38;;;;;;;3.75;1.58;;;;;;;18.94;100.00;99343.44;5112159;27;20051;-70
2023/07/25 02:40:03;;;;;;;4.53;1.45;;;;;;;18.92;100.00;99353.41;5111575;27;20040;-70
2023/07/25 02:42:29;;;;;;;5.95;1.83;;;;;;;18.89;100.00;99357.34;5138351;27;20023;-69
2023/07/25 02:44:54;;;;;;;8.90;1.25;;;;;;;18.90;100.00;99354.44;5122617;27;20043;-69
2023/07/25 02:47:20;;;;;;;6.38;1.80;;;;;;;18.87;100.00;99365.47;5112143;27;20217;-69
2023/07/25 02:49:45;;;;;;;7.03;1.48;;;;;;;18.92;100.00;99366.63;5115720;27;20038;-69
2023/07/25 02:52:10;;;;;;;7.03;1.30;;;;;;;18.93;100.00;99369.03;5112942;27;20026;-69
2023/07/25 02:54:36;;;;;;;5.05;1.45;;;;;;;18.92;100.00;99351.59;5129898;27;20064;-69
2023/07/25 02:57:01;;;;;;;7.60;1.38;;;;;;;18.94;100.00;99360.09;5117633;27;20127;-69
2023/07/25 02:59:29;;;;;;;3.63;0.85;;;;;;;18.93;100.00;99357.66;5111842;27;20555;-69
2023/07/25 03:01:54;;;;;;;8.40;1.20;;;;;;;18.94;100.00;99338.16;5110555;27;20384;-69
2023/07/25 03:04:19;;;;;;;3.28;0.90;;;;;;;18.96;100.00;99333.47;5102289;27;20023;-69
2023/07/25 03:06:45;;;;;;;5.15;1.38;;;;;;;18.97;100.00;99341.16;5118861;27;20047;-69
2023/07/25 03:09:10;;;;;;;9.07;1.25;;;;;;;19.00;100.00;99337.25;5111433;27;20035;-69
2023/07/25 03:11:36;;;;;;;5.68;1.10;;;;;;;19.01;100.00;99328.31;5111421;27;20027;-69
2023/07/25 03:14:01;;;;;;;5.55;1.27;;;;;;;19.00;100.00;99319.59;5119435;27;20360;-69
2023/07/25 03:16:26;;;;;;;4.13;1.15;;;;;;;19.09;100.00;99325.34;5112331;27;20080;-69
2023/07/25 03:18:52;;;;;;;4.15;0.90;;;;;;;19.11;100.00;99310.09;5113599;27;20135;-69
2023/07/25 03:21:17;;;;;;;6.03;1.25;;;;;;;19.10;100.00;99316.41;5133040;27;20509;-69
2023/07/25 03:23:43;;;;;;;6.95;1.67;;;;;;;19.13;100.00;99326.50;5114625;27;20043;-69
2023/07/25 03:26:08;;;;;;;3.92;1.17;;;;;;;19.14;100.00;99333.41;5119107;27;20027;-69
2023/07/25 03:28:33;;;;;;;7.40;1.23;;;;;;;19.21;100.00;99334.09;5111207;27;20098;-69
2023/07/25 03:30:59;;;;;;;6.70;1.10;;;;;;;19.19;100.00;99336.97;5111883;27;20027;-69
2023/07/25 03:33:24;;;;;;;5.50;1.90;;;;;;;19.04;100.00;99327.88;5126507;27;20023;-69
2023/07/25 03:35:50;;;;;;;4.78;1.13;;;;;;;18.95;100.00;99334.50;5115501;27;20028;-68
2023/07/25 03:38:15;;;;;;;5.57;1.73;;;;;;;18.93;100.00;99349.75;5111064;27;20034;-68
2023/07/25 03:40:40;;;;;;;6.10;1.42;;;;;;;18.94;100.00;99359.28;5111515;27;20046;-69
2023/07/25 03:43:06;;;;;;;4.20;1.45;;;;;;;18.96;100.00;99351.94;5110498;27;20023;-69
2023/07/25 03:45:31;;;;;;;4.18;0.93;;;;;;;18.98;100.00;99340.13;5120331;27;20042;-69
2023/07/25 03:47:57;;;;;;;7.30;1.33;;;;;;;19.04;100.00;99338.41;5110545;27;20059;-69
2023/07/25 03:50:22;;;;;;;7.35;1.52;;;;;;;19.05;100.00;99346.13;5130342;27;20056;-69
2023/07/25 03:52:48;;;;;;;6.57;1.65;;;;;;;19.09;100.00;99357.03;5113955;27;20573;-69
2023/07/25 03:55:13;;;;;;;6.63;1.40;;;;;;;19.11;100.00;99354.97;5115018;27;20080;-69
2023/07/25 03:57:39;;;;;;;3.25;1.00;;;;;;;19.15;100.00;99362.22;5113771;27;20077;-69
2023/07/25 04:00:05;;;;;;;3.83;1.30;;;;;;;19.17;100.00;99362.78;5110805;27;20027;-68
2023/07/25 04:02:30;;;;;;;6.60;1.58;;;;;;;19.23;100.00;99355.81;5110778;27;20057;-69
2023/07/25 04:04:56;;;;;;;4.07;1.13;;;;;;;19.22;100.00;99351.56;5114113;27;20039;-69
2023/07/25 04:07:21;;;;;;;3.78;0.80;;;;;;;19.11;100.00;99334.66;5110982;27;20023;-69
2023/07/25 04:09:46;;;;;;;3.38;0.88;;;;;;;19.08;100.00;99340.38;5126327;27;20038;-69
2023/07/25 04:12:12;;;;;;;5.38;1.15;;;;;;;19.13;100.00;99334.44;5117636;27;20027;-68
2023/07/25 04:14:39;;;;;;;4.13;1.00;;;;;;;19.14;100.00;99321.00;5120196;27;20077;-69
2023/07/25 04:17:05;;;;;;;3.22;0.85;;;;;;;19.21;100.00;99302.41;5115093;27;20027;-68
2023/07/25 04:19:30;;;;;;;6.88;1.30;;;;;;;19.22;100.00;99288.19;5125838;27;20386;-69
2023/07/25 04:21:55;;;;;;;7.40;1.13;;;;;;;19.35;100.00;99287.16;5140012;27;20113;-68
2023/07/25 04:24:21;;;;;;;6.35;1.25;;;;;;;19.31;100.00;99281.53;5105149;27;20386;-68
2023/07/25 04:26:46;;;;;;;4.57;1.05;;;;;;;19.34;100.00;99281.06;5116966;27;20106;-68
2023/07/25 04:29:11;;;;;;;3.67;1.10;;;;;;;19.41;100.00;99275.66;5127367;27;20573;-69
2023/07/25 04:31:37;;;;;;;5.00;0.90;;;;;;;19.44;100.00;99285.75;5121401;27;20024;-69
2023/07/25 04:34:02;;;;;;;8.45;1.33;;;;;;;19.46;100.00;99284.50;5116402;27;20495;-68
2023/07/25 04:36:29;;;;;;;2.20;0.80;;;;;;;19.48;100.00;99266.56;5135830;27;20030;-68
2023/07/25 04:38:56;;;;;;;4.47;1.15;;;;;;;19.52;100.00;99243.97;5139727;27;20498;-69
2023/07/25 04:41:22;;;;;;;6.85;1.17;;;;;;;19.55;100.00;99243.50;5121241;27;20395;-69
2023/07/25 04:43:47;;;;;;;5.90;1.10;;;;;;;19.51;100.00;99176.34;5122357;27;20031;-68
2023/07/25 04:46:12;;;;;;;3.60;1.05;;;;;;;19.46;100.00;99157.69;5122696;27;20024;-68
2023/07/25 04:48:38;;;;;;;4.15;1.23;;;;;;;19.44;100.00;99170.34;5117289;27;20039;-68
2023/07/25 04:51:03;;;;;;;4.95;1.35;;;;;;;19.52;100.00;99159.44;5125293;27;20024;-68
2023/07/25 04:53:29;;;;;;;3.35;1.15;;;;;;;19.55;100.00;99131.75;5119747;27;20028;-69
2023/07/25 04:55:54;;;;;;;4.65;1.25;;;;;;;19.57;100.00;99127.03;5127975;27;20043;-68
2023/07/25 04:58:20;;;;;;;9.38;1.25;;;;;;;19.55;100.00;99111.44;5114029;27;20065;-68
2023/07/25 05:00:45;;;;;;;6.97;1.67;;;;;;;19.49;100.00;99088.56;5138551;27;20463;-68
2023/07/25 05:03:10;;;;;;;4.10;1.70;;;;;;;19.49;100.00;99078.00;5126706;27;20050;-69
2023/07/25 05:05:36;;;;;;;6.45;1.92;;;;;;;19.55;100.00;99106.16;5127760;27;20031;-68
2023/07/25 05:08:01;;;;;;;3.65;1.67;;;;;;;19.65;100.00;99139.88;5130107;27;20035;-69
2023/07/25 05:10:27;;;;;;;4.63;1.63;;;;;;;19.61;100.00;99109.69;5113817;27;20028;-68
2023/07/25 05:12:52;;;;;;;6.60;1.90;;;;;;;19.53;100.00;99091.56;5113228;27;20106;-68
2023/07/25 05:15:18;;;;;;;5.15;1.75;;;;;;;19.64;100.00;99126.91;5122925;27;20422;-68
2023/07/25 05:17:43;;;;;;;7.32;1.77;;;;;;;19.70;100.00;99134.69;5116639;27;20047;-68
2023/07/25 05:20:09;;;;;;;5.22;1.80;;;;;;;19.66;100.00;99106.34;5118658;27;20027;-68
2023/07/25 05:22:34;;;;;;;6.70;1.60;;;;;;;19.58;100.00;99118.09;5115984;27;20031;-68
2023/07/25 05:25:00;;;;;;;5.97;2.10;;;;;;;19.63;100.00;99102.31;5129801;27;20038;-68
2023/07/25 05:27:25;;;;;;;9.82;2.33;;;;;;;19.72;100.00;99081.63;5101403;27;20035;-69
2023/07/25 05:29:50;;;;;;;9.10;2.55;;;;;;;19.74;100.00;99042.53;5117160;27;20035;-68
2023/07/25 05:32:16;;;;;;;7.35;1.95;;;;;;;19.69;100.00;99011.56;5128702;27;20075;-68
2023/07/25 05:34:41;;;;;;;5.13;1.73;;;;;;;19.80;100.00;99015.16;5117063;27;20031;-68
2023/07/25 05:37:07;;;;;;;7.35;2.38;;;;;;;19.94;100.00;99013.00;5122630;27;20032;-68
2023/07/25 05:39:32;;;;;;;10.73;3.08;;;;;;;20.19;100.00;98968.44;5116472;27;20023;-69
2023/07/25 05:41:58;;;;;;;12.07;2.42;;;;;;;20.47;100.00;98930.47;5115878;27;20035;-69
2023/07/25 05:44:23;;;;;;;12.13;2.50;;;;;;;20.64;100.00;98904.78;5122706;27;20506;-69
2023/07/25 05:46:48;;;;;;;6.95;2.28;;;;;;;20.77;100.00;99280.22;5134702;27;20079;-69
2023/07/25 05:49:15;;;;;;;7.90;1.05;;;;;;;20.44;100.00;99269.56;5123835;27;20148;-72
2023/07/25 05:51:40;;;;;;;5.05;0.55;;;;;;;19.60;100.00;99335.28;5126444;27;21004;-73
2023/07/25 05:54:05;;;;;;;5.50;0.28;;;;;;;18.77;100.00;99378.41;5123215;27;20523;-76
2023/07/25 05:56:31;;;;;;;4.30;0.20;;;;;;;18.34;100.00;99554.38;5128688;27;20084;-73
2023/07/25 05:58:56;;;;;;;3.50;0.20;;;;;;;18.10;100.00;99622.72;5114420;27;20047;-73
2023/07/25 06:01:22;;;;;;;2.65;0.30;;;;;;;18.08;100.00;99603.66;5118277;27;20047;-69
2023/07/25 06:03:47;;;;;;;1.13;0.10;;;;;;;17.99;100.00;99557.50;5133925;27;20023;-69
2023/07/25 06:06:12;;;;;;;0.85;0.10;;;;;;;17.93;100.00;99536.50;5132603;27;20023;-70
2023/07/25 06:08:38;;;;;;;0.75;0.10;;;;;;;17.90;100.00;99543.81;5127822;27;20034;-70
2023/07/25 06:11:03;;;;;;;0.60;0.10;;;;;;;17.92;100.00;99534.88;5112327;27;20035;-71
2023/07/25 06:13:29;;;;;;;1.13;0.17;;;;;;;17.93;100.00;99521.47;5113927;27;20027;-73
2023/07/25 06:15:54;;;;;;;0.95;0.20;;;;;;;17.89;100.00;99483.41;5129446;27;20053;-71
2023/07/25 06:18:19;;;;;;;2.35;0.20;;;;;;;17.85;100.00;99467.22;5133155;27;20034;-72
2023/07/25 06:20:48;;;;;;;0.30;0.10;;;;;;;17.87;100.00;99481.00;5129489;27;20033;-72
2023/07/25 06:23:13;;;;;;;3.00;0.15;;;;;;;17.90;100.00;99469.22;5118603;27;20340;-76
2023/07/25 06:25:39;;;;;;;1.80;0.20;;;;;;;17.86;100.00;99455.66;5122053;27;20106;-73
2023/07/25 06:28:05;;;;;;;1.75;0.03;;;;;;;17.81;100.00;99473.13;5140699;27;20035;-70
2023/07/25 06:30:31;;;;;;;0.20;0.00;;;;;;;17.79;100.00;99485.72;5125408;27;20491;-75
2023/07/25 06:32:57;;;;;;;0.63;0.10;;;;;;;17.79;100.00;99491.00;5129859;27;20106;-74
2023/07/25 06:35:22;;;;;;;1.30;0.00;;;;;;;17.84;100.00;99501.69;5129709;27;20440;-76
2023/07/25 06:37:48;;;;;;;1.50;0.10;;;;;;;17.90;100.00;99512.19;5137540;27;20034;-76
2023/07/25 06:40:14;;;;;;;0.70;0.10;;;;;;;17.95;100.00;99506.25;5137589;27;20547;-74
2023/07/25 06:42:39;;;;;;;1.10;0.10;;;;;;;18.01;100.00;99497.47;5141451;27;20037;-73
2023/07/25 06:45:05;;;;;;;0.55;0.10;;;;;;;18.02;100.00;99480.63;5131643;27;20041;-75
2023/07/25 06:47:31;;;;;;;1.80;0.10;;;;;;;18.04;100.00;99499.69;5126796;27;20027;-72
2023/07/25 06:49:56;;;;;;;1.67;0.00;;;;;;;18.05;100.00;99498.66;5124625;27;20035;-69
2023/07/25 06:52:21;;;;;;;3.55;0.10;;;;;;;18.09;100.00;99484.03;5135824;27;20023;-70
2023/07/25 06:54:47;;;;;;;0.30;0.05;;;;;;;18.10;100.00;99501.44;5128955;27;20027;-70
2023/07/25 06:57:13;;;;;;;0.17;0.00;;;;;;;18.15;100.00;99504.25;5139941;27;20030;-69
2023/07/25 06:59:38;;;;;;;0.20;0.08;;;;;;;18.19;100.00;99502.78;5127430;27;20039;-69
2023/07/25 07:02:03;;;;;;;3.35;0.10;;;;;;;18.27;100.00;99500.91;5130135;27;20042;-68
2023/07/25 07:04:29;;;;;;;0.40;0.05;;;;;;;18.34;100.00;99491.91;5128825;27;20023;-69
2023/07/25 07:06:55;;;;;;;2.22;0.10;;;;;;;18.33;100.00;99489.50;5135064;27;20031;-69
2023/07/25 07:09:21;;;;;;;6.53;0.50;;;;;;;18.30;100.00;99479.38;5124782;27;20023;-69
2023/07/25 07:11:46;;;;;;;0.30;0.00;;;;;;;18.31;100.00;99465.97;5131561;27;20029;-70
2023/07/25 07:14:12;;;;;;;1.73;0.10;;;;;;;18.30;100.00;99468.84;5126739;27;20110;-69
2023/07/25 07:16:37;;;;;;;1.38;0.05;;;;;;;18.37;100.00;99459.03;5135390;27;20027;-69
2023/07/25 07:19:03;;;;;;;1.00;0.00;;;;;;;18.43;100.00;99458.16;5129805;27;20035;-69
2023/07/25 07:21:29;;;;;;;1.05;0.00;;;;;;;18.52;100.00;99448.91;5126790;27;20426;-69
2023/07/25 07:23:54;;;;;;;0.10;0.00;;;;;;;18.52;100.00;99435.72;5115402;27;20023;-69
2023/07/25 07:26:20;;;;;;;0.15;0.00;;;;;;;18.54;100.00;99426.53;5124357;27;20024;-69
2023/07/25 07:28:45;;;;;;;1.52;0.50;;;;;;;18.53;100.00;99437.31;5133442;27;20112;-70
2023/07/25 07:31:12;;;;;;;0.32;0.10;;;;;;;18.55;100.00;99451.09;5131668;27;20019;-69
2023/07/25 07:33:38;;;;;;;0.77;0.13;;;;;;;18.66;100.00;99437.19;5131645;27;20034;-69
2023/07/25 07:36:05;;;;;;;0.43;0.10;;;;;;;18.73;100.00;99442.41;5129887;27;20034;-69
2023/07/25 07:38:30;;;;;;;0.52;0.00;;;;;;;18.66;100.00;99436.38;5130131;27;20023;-69
2023/07/25 07:40:56;;;;;;;0.70;0.10;;;;;;;18.55;100.00;99433.44;5131156;27;20146;-68
2023/07/25 07:43:21;;;;;;;1.92;0.13;;;;;;;18.53;100.00;99435.47;5124711;27;20097;-68
2023/07/25 07:45:47;;;;;;;0.45;0.10;;;;;;;18.61;100.00;99428.34;5137632;27;20043;-68
2023/07/25 07:48:13;;;;;;;7.13;0.70;;;;;;;18.66;100.00;99426.66;5131600;27;20023;-69
2023/07/25 07:50:38;;;;;;;2.00;0.20;;;;;;;18.72;100.00;99422.31;5131750;27;20481;-68
2023/07/25 07:53:04;;;;;;;0.90;0.20;;;;;;;18.77;100.00;99417.19;5132386;27;20026;-68
2023/07/25 07:55:29;;;;;;;1.42;0.35;;;;;;;18.80;100.00;99414.91;5136984;27;20027;-69
2023/07/25 07:57:55;;;;;;;3.15;0.65;;;;;;;18.84;100.00;99413.44;5111842;28;20035;-69
2023/07/25 08:00:21;;;;;;;3.92;0.40;;;;;;;18.85;100.00;99412.41;5125160;27;20046;-69
2023/07/25 08:02:47;;;;;;;2.10;0.40;;;;;;;18.77;100.00;99407.44;5133201;27;20490;-69
2023/07/25 08:05:13;;;;;;;3.35;0.60;;;;;;;18.73;100.00;99405.47;5130829;27;20118;-69
2023/07/25 08:07:39;;;;;;;5.32;0.50;;;;;;;18.69;100.00;99420.94;5128264;27;20130;-68
2023/07/25 08:10:06;;;;;;;1.55;0.50;;;;;;;18.67;100.00;99422.97;5130324;27;20023;-68
2023/07/25 08:12:31;;;;;;;2.25;0.40;;;;;;;18.68;100.00;99439.63;5107134;28;20141;-69
2023/07/25 08:14:56;;;;;;;3.65;0.55;;;;;;;18.72;100.00;99490.91;5118037;27;20027;-71
2023/07/25 08:17:22;;;;;;;9.65;1.05;;;;;;;18.82;100.00;99492.00;5136774;27;20483;-71
2023/07/25 08:19:48;;;;;;;8.50;1.30;;;;;;;18.68;100.00;99398.22;5118529;27;20147;-70
2023/07/25 08:22:13;;;;;;;4.93;1.00;;;;;;;18.54;100.00;99460.84;5126599;27;20025;-72
2023/07/25 08:24:39;;;;;;;3.95;0.77;;;;;;;18.49;100.00;99457.25;5121891;27;20031;-71
2023/07/25 08:27:05;;;;;;;2.95;0.60;;;;;;;18.41;100.00;99445.19;5117041;27;20027;-70
2023/07/25 08:29:31;;;;;;;3.55;0.57;;;;;;;18.37;100.00;99438.72;5115008;27;20039;-69
2023/07/25 08:31:56;;;;;;;0.65;0.30;;;;;;;18.21;100.00;99445.38;5129342;27;20421;-71
2023/07/25 08:34:22;;;;;;;0.70;0.20;;;;;;;18.02;100.00;99451.66;5121162;27;20468;-69
2023/07/25 08:36:47;;;;;;;0.40;0.15;;;;;;;17.88;100.00;99429.09;5126824;27;20051;-68
2023/07/25 08:39:13;;;;;;;1.25;0.50;;;;;;;17.84;100.00;99436.63;5121463;27;20095;-70
2023/07/25 08:41:53;;;;;;;0.75;0.20;;;;;;;17.82;100.00;99424.69;5120006;27;20028;-70
2023/07/25 08:44:22;;;;;;;3.28;0.20;;;;;;;17.91;100.00;99410.22;5125448;27;20027;-69
2023/07/25 08:46:51;;;;;;;5.75;0.82;;;;;;;18.02;100.00;99408.66;5122016;27;20031;-70
2023/07/25 08:49:20;;;;;;;7.25;0.30;;;;;;;18.09;100.00;99410.22;5134605;27;20038;-71
2023/07/25 08:51:49;;;;;;;2.47;0.20;;;;;;;18.07;100.00;99409.63;5130996;27;20439;-71
2023/07/25 08:54:34;;;;;;;1.67;0.63;;;;;;;18.04;100.00;99381.06;5108341;27;20022;-71
2023/07/25 08:57:00;;;;;;;0.70;0.20;;;;;;;18.02;100.00;99377.84;5124230;27;20047;-71
2023/07/25 08:59:26;;;;;;;2.95;0.40;;;;;;;18.06;100.00;99354.50;5119486;27;20036;-71
2023/07/25 09:01:52;;;;;;;2.22;0.40;;;;;;;18.19;100.00;99349.91;5130175;27;20047;-72
2023/07/25 09:04:19;;;;;;;3.70;0.60;;;;;;;18.38;100.00;99360.44;5127757;27;20059;-74
2023/07/25 09:06:45;;;;;;;2.63;0.60;;;;;;;18.59;100.00;99341.47;5128688;27;20062;-72
2023/07/25 09:09:11;;;;;;;3.33;2.15;;;;;;;18.81;100.00;99326.00;5123375;27;20456;-72
2023/07/25 09:11:36;;;;;;;3.50;0.80;;;;;;;19.02;100.00;99330.72;5145096;27;20018;-72
2023/07/25 09:14:02;;;;;;;4.72;1.05;;;;;;;19.27;100.00;99338.47;5140516;27;20030;-72
2023/07/25 09:16:27;;;;;;;3.45;1.05;;;;;;;19.34;100.00;99328.59;5125808;27;20084;-72
2023/07/25 09:18:53;;;;;;;3.97;1.33;;;;;;;19.45;100.00;99325.16;5128325;27;20031;-72
2023/07/25 09:21:18;;;;;;;3.50;0.55;;;;;;;19.36;100.00;99320.47;5104662;27;20104;-73
2023/07/25 09:23:54;;;;;;;3.47;0.70;;;;;;;19.21;100.00;99319.06;5128444;27;20092;-73
2023/07/25 09:26:26;;;;;;;1.85;0.57;;;;;;;19.26;100.00;99342.16;5133555;27;20039;-74
2023/07/25 09:28:54;;;;;;;1.25;0.40;;;;;;;19.33;100.00;99340.19;5134078;27;20483;-73
2023/07/25 09:31:20;;;;;;;3.50;0.30;;;;;;;19.22;100.00;99351.56;5134131;27;20103;-73
2023/07/25 09:33:48;;;;;;;1.15;0.40;;;;;;;19.04;100.00;99349.78;5129381;27;20402;-73
2023/07/25 09:36:14;;;;;;;2.63;0.20;;;;;;;19.09;100.00;99341.19;5127790;27;20027;-72
2023/07/25 09:38:54;;;;;;;5.82;0.93;;;;;;;19.31;100.00;99339.63;5134117;27;20050;-72
2023/07/25 09:41:22;;;;;;;5.05;0.40;;;;;;;19.41;100.00;99344.31;5120436;27;20039;-72
2023/07/25 09:43:49;;;;;;;1.33;0.40;;;;;;;19.33;100.00;99355.25;5123989;27;20498;-72
2023/07/25 09:46:14;;;;;;;2.53;0.50;;;;;;;19.31;100.00;99366.03;5115076;27;20035;-72
2023/07/25 09:48:43;;;;;;;1.60;0.40;;;;;;;19.35;100.00;99361.09;5132327;27;20502;-72
2023/07/25 09:51:10;;;;;;;2.35;0.40;;;;;;;19.33;100.00;99348.13;5117156;27;20079;-71
2023/07/25 09:53:36;;;;;;;1.73;0.40;;;;;;;19.29;100.00;99333.75;5122140;27;20500;-71
2023/07/25 09:56:02;;;;;;;1.83;0.50;;;;;;;19.27;100.00;99322.63;5131789;27;20031;-71
2023/07/25 09:58:28;;;;;;;1.10;0.30;;;;;;;19.26;100.00;99317.56;5133814;27;20054;-71
2023/07/25 10:00:56;;;;;;;0.63;0.20;;;;;;;19.14;100.00;99320.19;5133407;27;20492;-71
2023/07/25 10:03:23;;;;;;;1.27;0.30;;;;;;;19.08;100.00;99316.63;5133604;27;20103;-71
2023/07/25 10:05:49;;;;;;;1.20;0.20;;;;;;;19.06;100.00;99313.41;5133198;27;20034;-71
2023/07/25 10:08:16;;;;;;;2.22;0.30;;;;;;;19.08;100.00;99313.97;5133925;27;20019;-71
2023/07/25 10:10:42;;;;;;;0.80;0.20;;;;;;;19.09;100.00;99320.88;5132389;27;20113;-70
2023/07/25 10:13:08;;;;;;;3.38;0.30;;;;;;;19.11;100.00;99339.94;5133417;27;20155;-71
2023/07/25 10:15:35;;;;;;;2.30;0.40;;;;;;;19.16;100.00;99384.13;5133544;27;20031;-71
2023/07/25 10:18:16;;;;;;;3.72;0.70;;;;;;;19.23;100.00;99472.78;5132823;27;20403;-75
2023/07/25 10:20:41;;;;;;;3.45;0.40;;;;;;;19.12;100.00;99515.78;5133290;27;20035;-73
2023/07/25 10:23:09;;;;;;;1.73;0.82;;;;;;;18.90;100.00;99528.63;5132781;27;20030;-72
2023/07/25 10:25:35;;;;;;;4.50;0.70;;;;;;;18.83;100.00;99554.31;5120571;27;20058;-72
2023/07/25 10:28:03;;;;;;;3.30;0.90;;;;;;;18.79;100.00;99562.91;5131621;27;20563;-71
2023/07/25 10:30:31;;;;;;;3.20;0.70;;;;;;;18.72;100.00;99539.22;5108493;27;20043;-72
2023/07/25 10:33:01;;;;;;;4.43;0.60;;;;;;;18.54;100.00;99465.31;5127821;27;20035;-72
2023/07/25 10:35:49;;;;;;;2.38;0.35;;;;;;;18.22;100.00;99415.38;5132929;27;20031;-70
2023/07/25 10:38:22;;;;;;;2.10;0.55;;;;;;;17.98;100.00;99439.13;5132962;27;20051;-70
2023/07/25 10:40:58;;;;;;;4.97;0.80;;;;;;;17.76;100.00;99436.91;5129870;27;20065;-71
2023/07/25 10:43:46;;;;;;;3.30;1.05;;;;;;;17.67;100.00;99418.94;5122688;27;20099;-72
2023/07/25 10:46:22;;;;;;;3.42;0.88;;;;;;;17.65;100.00;99418.31;5132760;27;20035;-72
2023/07/25 10:48:54;;;;;;;4.20;1.00;;;;;;;17.61;100.00;99391.59;5132248;27;20502;-72
2023/07/25 10:51:21;;;;;;;4.85;0.70;;;;;;;17.61;100.00;99378.44;5132615;27;20033;-71
2023/07/25 10:54:09;;;;;;;3.38;1.00;;;;;;;17.61;100.00;99343.38;5122442;27;20093;-72
2023/07/25 10:56:35;;;;;;;6.32;1.40;;;;;;;17.64;100.00;99325.31;5132713;27;20087;-72
2023/07/25 10:59:11;;;;;;;1.85;0.80;;;;;;;17.71;100.00;99314.75;5127731;27;20040;-74
2023/07/25 11:01:48;;;;;;;4.22;0.88;;;;;;;17.77;100.00;99298.88;5118328;27;20047;-73
2023/07/25 11:04:23;;;;;;;2.92;0.88;;;;;;;17.93;100.00;99294.88;5111823;27;20111;-75
2023/07/25 11:06:49;;;;;;;2.20;0.90;;;;;;;18.22;100.00;99295.91;5112403;27;20032;-76
2023/07/25 11:09:15;;;;;;;4.03;1.35;;;;;;;18.47;100.00;99279.97;5117977;27;20394;-72
2023/07/25 11:12:08;;;;;;;4.97;1.23;;;;;;;18.67;100.00;99296.34;5131375;27;20052;-73
2023/07/25 11:14:40;;;;;;;2.85;1.45;;;;;;;19.07;100.00;99296.53;5124438;27;20039;-74
2023/07/25 11:17:05;;;;;;;4.72;1.80;;;;;;;19.30;100.00;99287.03;5119423;27;20106;-74
2023/07/25 11:19:30;;;;;;;2.90;1.10;;;;;;;19.56;100.00;99278.66;5126707;27;20027;-73
2023/07/25 11:21:56;;;;;;;8.57;3.20;;;;;;;19.84;100.00;99302.53;5113946;27;20043;-74